Time;durP1;ratioP1;P1;durP2;ratioP2;P2;SDS_P1;SDS_P2;PMS_P1;PMS_P2;Temp;Humidity;BMP_temperature;BMP_pressure;BME280_temperature;BME280_humidity;BME280_pressure;Samples;Min_cycle;Max_cycle;Signal;HPM_P1;HPM_P2
2024/01/14 00:00:13;;;;;;;25.75;15.38;;;;;;;-0.07;100.00;98801.06;1700437;84;25950;-59
2024/01/14 00:02:39;;;;;;;23.62;14.45;;;;;;;-0.07;100.00;98791.76;1700900;84;25575;-59
2024/01/14 00:05:08;;;;;;;21.65;14.25;;;;;;;-0.07;100.00;98801.58;1700861;83;25442;-60
2024/01/14 00:07:36;;;;;;;23.77;14.07;;;;;;;-0.07;100.00;98801.58;1700937;84;28006;-60
2024/01/14 00:10:05;;;;;;;21.65;13.70;;;;;;;-0.09;100.00;98793.09;1716729;83;25616;-60
2024/01/14 00:12:33;;;;;;;21.35;13.88;;;;;;;-0.10;100.00;98775.54;1720984;82;30215;-60
2024/01/14 00:15:02;;;;;;;18.50;12.95;;;;;;;-0.10;100.00;98780.34;1728966;83;25610;-60
2024/01/14 00:17:28;;;;;;;21.82;13.08;;;;;;;-0.12;100.00;98778.50;1749809;82;25391;-59
2024/01/14 00:19:54;;;;;;;23.35;13.98;;;;;;;-0.12;100.00;98780.34;1749838;81;27277;-60
2024/01/14 00:22:20;;;;;;;23.22;15.13;;;;;;;-0.13;100.00;98773.45;1729174;83;25439;-60
2024/01/14 00:24:46;;;;;;;21.07;14.18;;;;;;;-0.13;100.00;98770.25;1750156;82;25395;-59
2024/01/14 00:27:13;;;;;;;22.90;14.20;;;;;;;-0.13;100.00;98768.92;1723324;83;25563;-60
2024/01/14 00:29:40;;;;;;;21.93;14.45;;;;;;;-0.15;100.00;98755.63;1749889;82;25628;-61
2024/01/14 00:32:07;;;;;;;21.27;13.93;;;;;;;-0.13;100.00;98764.16;1729270;81;27331;-60
2024/01/14 00:34:35;;;;;;;19.02;12.70;;;;;;;-0.15;100.00;98759.11;1749994;81;25451;-60
2024/01/14 00:37:01;;;;;;;19.57;12.88;;;;;;;-0.12;100.00;98753.76;1755067;81;25589;-60
2024/01/14 00:39:27;;;;;;;19.23;13.72;;;;;;;-0.13;100.00;98767.59;1723268;83;25421;-60
2024/01/14 00:41:53;;;;;;;23.12;13.85;;;;;;;-0.10;100.00;98746.30;1749783;82;25459;-60
2024/01/14 00:44:19;;;;;;;21.85;12.95;;;;;;;-0.11;100.00;98744.19;1749724;81;27367;-60
2024/01/14 00:46:46;;;;;;;20.23;13.10;;;;;;;-0.10;100.00;98747.62;1749743;81;25645;-60
2024/01/14 00:49:12;;;;;;;19.17;13.32;;;;;;;-0.10;100.00;98735.66;1749799;81;25597;-60
2024/01/14 00:51:38;;;;;;;20.40;13.15;;;;;;;-0.09;100.00;98731.95;1749732;81;25402;-59
2024/01/14 00:54:06;;;;;;;20.45;13.85;;;;;;;-0.10;100.00;98723.19;1723399;83;25654;-60
2024/01/14 00:56:32;;;;;;;18.50;12.33;;;;;;;-0.10;100.00;98723.19;1749885;82;27329;-60
2024/01/14 00:58:58;;;;;;;20.77;13.48;;;;;;;-0.11;100.00;98717.61;1749804;81;25620;-60
2024/01/14 01:01:24;;;;;;;22.00;13.80;;;;;;;-0.09;100.00;98718.66;1729322;82;25630;-59
2024/01/14 01:03:51;;;;;;;19.32;12.60;;;;;;;-0.08;100.00;98709.62;1750120;82;27600;-61
2024/01/14 01:06:17;;;;;;;18.70;12.68;;;;;;;-0.09;100.00;98708.03;1755354;80;25561;-62
2024/01/14 01:08:43;;;;;;;19.60;12.88;;;;;;;-0.08;100.00;98702.98;1722990;83;27341;-61
2024/01/14 01:11:09;;;;;;;21.02;12.78;;;;;;;-0.08;100.00;98689.69;1748611;82;25739;-60
2024/01/14 01:13:35;;;;;;;21.33;13.45;;;;;;;-0.07;100.00;98693.92;1749634;81;25494;-60
2024/01/14 01:16:01;;;;;;;20.08;13.00;;;;;;;-0.09;100.00;98684.89;1749908;81;25892;-61
2024/01/14 01:18:27;;;;;;;18.42;12.65;;;;;;;-0.07;100.00;98686.76;1723415;83;25582;-60
2024/01/14 01:20:54;;;;;;;18.20;12.07;;;;;;;-0.07;100.00;98681.45;1749899;82;27383;-60
2024/01/14 01:23:20;;;;;;;19.00;12.78;;;;;;;-0.07;100.00;98677.97;1729252;83;25572;-60
2024/01/14 01:25:46;;;;;;;20.90;12.82;;;;;;;-0.06;100.00;98671.59;1750221;81;25640;-60
2024/01/14 01:28:14;;;;;;;18.75;11.75;;;;;;;-0.06;100.00;98663.62;1729301;83;25889;-60
2024/01/14 01:30:42;;;;;;;19.15;12.37;;;;;;;-0.05;100.00;98663.86;1750203;81;25609;-60
2024/01/14 01:33:10;;;;;;;21.60;13.68;;;;;;;-0.06;100.00;98664.41;1729310;83;27371;-60
2024/01/14 01:35:36;;;;;;;19.75;13.53;;;;;;;-0.03;100.00;98655.09;1749979;82;25550;-60
2024/01/14 01:38:05;;;;;;;19.57;13.35;;;;;;;-0.03;100.00;98651.11;1723380;83;25461;-60
2024/01/14 01:40:31;;;;;;;21.10;14.07;;;;;;;-0.02;100.00;98654.82;1750149;82;25592;-60
2024/01/14 01:42:59;;;;;;;18.92;13.43;;;;;;;-0.01;100.00;98644.97;1749853;82;25459;-60
2024/01/14 01:45:27;;;;;;;21.00;13.03;;;;;;;0.02;100.00;98644.94;1723397;83;27333;-61
2024/01/14 01:47:55;;;;;;;18.27;13.30;;;;;;;0.03;100.00;98648.64;1749789;82;25609;-61
2024/01/14 01:50:23;;;;;;;20.97;14.23;;;;;;;0.04;100.00;98642.81;1723460;83;25469;-60
2024/01/14 01:52:51;;;;;;;22.95;13.65;;;;;;;0.05;100.00;98645.20;1749790;82;25384;-61
2024/01/14 01:55:20;;;;;;;22.00;14.05;;;;;;;0.06;100.00;98632.14;1729312;82;25593;-61
2024/01/14 01:57:47;;;;;;;22.22;13.10;;;;;;;0.08;100.00;98629.20;1750138;81;27382;-61
2024/01/14 02:00:16;;;;;;;22.17;14.73;;;;;;;0.10;100.00;98635.03;1723250;83;25555;-60
2024/01/14 02:02:44;;;;;;;;;;;;;;;0.10;100.00;98629.20;1752464;82;25569;-61
2024/01/14 02:05:12;;;;;;;19.52;12.60;;;;;;;0.12;100.00;98627.05;1723326;83;25497;-60
2024/01/14 02:07:41;;;;;;;22.80;14.43;;;;;;;0.13;100.00;98617.98;1750135;82;25566;-60
2024/01/14 02:10:09;;;;;;;19.85;13.65;;;;;;;0.15;100.00;98617.18;1723373;83;27312;-60
2024/01/14 02:12:35;;;;;;;21.87;14.23;;;;;;;0.17;100.00;98616.36;1749911;81;25647;-60
2024/01/14 02:15:02;;;;;;;22.75;13.80;;;;;;;0.17;100.00;98611.04;1749948;81;25478;-60
2024/01/14 02:17:28;;;;;;;20.00;13.35;;;;;;;0.20;100.00;98608.89;1749869;81;25474;-59
2024/01/14 02:19:54;;;;;;;20.43;13.35;;;;;;;0.21;100.00;98610.48;1749857;82;25622;-59
2024/01/14 02:22:28;;;;;;;19.40;13.70;;;;;;;0.21;100.00;98595.31;1749825;81;27364;-60
2024/01/14 02:24:57;;;;;;;20.17;13.48;;;;;;;0.23;100.00;98597.69;1722960;83;25660;-60
2024/01/14 02:27:25;;;;;;;18.00;12.58;;;;;;;0.24;100.00;98589.95;1749861;81;25388;-60
2024/01/14 02:29:54;;;;;;;19.85;13.30;;;;;;;0.23;100.00;98587.84;1729275;83;25548;-60
2024/01/14 02:32:20;;;;;;;20.77;12.80;;;;;;;0.23;100.00;98588.38;1750307;80;25456;-58
2024/01/14 02:34:49;;;;;;;18.80;12.60;;;;;;;0.22;100.00;98586.24;1755206;81;27346;-59
2024/01/14 02:37:15;;;;;;;19.92;12.90;;;;;;;0.21;100.00;98591.87;1729256;83;25736;-59
2024/01/14 02:39:41;;;;;;;20.70;12.75;;;;;;;0.21;100.00;98587.34;1750120;81;25670;-58
2024/01/14 02:42:07;;;;;;;20.05;12.82;;;;;;;0.20;100.00;98577.77;1755137;81;25477;-59
2024/01/14 02:44:33;;;;;;;20.23;12.55;;;;;;;0.21;100.00;98566.61;1723343;83;25385;-60
2024/01/14 02:46:59;;;;;;;20.32;13.28;;;;;;;0.21;100.00;98566.61;1749837;82;27516;-59
2024/01/14 02:49:26;;;;;;;20.88;12.88;;;;;;;0.22;100.00;98565.52;1749781;81;25643;-61
2024/01/14 02:51:54;;;;;;;19.50;12.73;;;;;;;0.23;100.00;98566.56;1723299;83;25557;-58
2024/01/14 02:54:20;;;;;;;21.52;12.88;;;;;;;0.24;100.00;98557.52;1749766;82;25628;-58
2024/01/14 02:56:46;;;;;;;17.98;12.63;;;;;;;0.25;100.00;98567.06;1749858;81;25552;-59
2024/01/14 02:59:12;;;;;;;18.77;12.47;;;;;;;0.27;100.00;98556.94;1749853;81;27921;-60
2024/01/14 03:01:46;;;;;;;18.52;12.65;;;;;;;0.29;100.00;98544.69;1749634;81;25732;-60
2024/01/14 03:04:12;;;;;;;17.87;12.47;;;;;;;0.31;100.00;98549.20;1729297;82;25490;-59
2024/01/14 03:06:39;;;;;;;22.37;13.08;;;;;;;0.31;100.00;98538.02;1750051;81;25624;-59
2024/01/14 03:09:07;;;;;;;18.57;12.55;;;;;;;0.33;100.00;98555.81;1755211;81;25404;-59
2024/01/14 03:11:38;;;;;;;19.82;13.10;;;;;;;0.34;100.00;98545.44;1723390;83;27344;-59
2024/01/14 03:14:04;;;;;;;16.25;11.63;;;;;;;0.35;100.00;98541.69;1749659;81;25393;-59
2024/01/14 03:16:30;;;;;;;16.95;11.73;;;;;;;0.38;100.00;98547.53;1749736;81;25589;-56
2024/01/14 03:18:56;;;;;;;16.25;11.78;;;;;;;0.38;100.00;98545.66;1749796;81;25531;-60
2024/01/14 03:21:22;;;;;;;16.62;11.97;;;;;;;0.41;100.00;98548.27;1749836;82;25486;-59
2024/01/14 03:23:49;;;;;;;15.30;11.18;;;;;;;0.41;100.00;98548.27;1723289;83;28016;-60
2024/01/14 03:26:16;;;;;;;21.70;12.28;;;;;;;0.41;100.00;98544.28;1749671;82;25390;-61
2024/01/14 03:28:42;;;;;;;17.27;11.95;;;;;;;0.42;100.00;98540.02;1729221;83;25624;-61
2024/01/14 03:31:15;;;;;;;19.67;12.28;;;;;;;0.43;100.00;98540.28;1750001;82;25582;-60
2024/01/14 03:33:45;;;;;;;17.32;12.20;;;;;;;0.44;100.00;98528.55;1723384;83;25667;-61
2024/01/14 03:36:17;;;;;;;21.30;12.50;;;;;;;0.43;100.00;98526.98;1749864;82;27678;-61
2024/01/14 03:38:45;;;;;;;17.12;11.85;;;;;;;0.44;100.00;98531.20;1729191;83;25476;-61
2024/01/14 03:41:13;;;;;;;17.32;11.78;;;;;;;0.44;100.00;98518.45;1750130;81;25475;-62
2024/01/14 03:43:39;;;;;;;19.62;12.70;;;;;;;0.45;100.00;98522.16;1723139;83;25564;-61
2024/01/14 03:46:08;;;;;;;15.50;11.03;;;;;;;0.46;100.00;98519.77;1749843;82;25395;-60
2024/01/14 03:48:34;;;;;;;15.40;10.85;;;;;;;0.48;100.00;98517.61;1723467;83;27438;-61
2024/01/14 03:51:00;;;;;;;17.62;10.88;;;;;;;0.48;100.00;98510.17;1749694;82;25612;-61
2024/01/14 03:53:26;;;;;;;18.10;11.60;;;;;;;0.48;100.00;98509.63;1749806;82;25431;-61
2024/01/14 03:55:53;;;;;;;16.77;11.55;;;;;;;0.48;100.00;98501.64;1749713;82;27434;-61
2024/01/14 03:58:20;;;;;;;17.48;11.33;;;;;;;0.51;100.00;98508.24;1749824;81;25413;-61
2024/01/14 04:00:47;;;;;;;16.25;11.28;;;;;;;0.51;100.00;98508.24;1729245;82;27195;-61
2024/01/14 04:03:15;;;;;;;16.62;10.78;;;;;;;0.52;100.00;98492.55;1749937;81;25399;-62
2024/01/14 04:05:41;;;;;;;18.00;11.30;;;;;;;0.52;100.00;98500.53;1723235;83;25432;-61
2024/01/14 04:08:07;;;;;;;17.45;11.10;;;;;;;0.52;100.00;98501.86;1749764;82;25439;-61
2024/01/14 04:10:36;;;;;;;17.17;11.10;;;;;;;0.52;100.00;98507.18;1749809;81;25232;-61
2024/01/14 04:13:04;;;;;;;15.27;11.23;;;;;;;0.52;100.00;98499.20;1723514;83;29432;-61
2024/01/14 04:15:30;;;;;;;16.10;10.93;;;;;;;0.52;100.00;98489.34;1749608;81;25389;-62
2024/01/14 04:17:59;;;;;;;19.05;11.40;;;;;;;0.53;100.00;98496.80;1729252;83;25644;-60
2024/01/14 04:20:25;;;;;;;15.40;10.78;;;;;;;0.53;100.00;98492.81;1750162;82;25941;-61
2024/01/14 04:22:51;;;;;;;14.73;10.68;;;;;;;0.52;100.00;98488.01;1729206;83;25563;-61
2024/01/14 04:25:17;;;;;;;16.30;9.90;;;;;;;0.52;100.00;98478.70;1750040;81;27220;-61
2024/01/14 04:27:43;;;;;;;13.15;9.95;;;;;;;0.52;100.00;98489.89;1723373;83;25920;-61
2024/01/14 04:30:13;;;;;;;16.17;11.28;;;;;;;0.51;100.00;98479.80;1749882;82;25424;-61
2024/01/14 04:32:39;;;;;;;17.17;11.10;;;;;;;0.52;100.00;98480.58;1750069;82;25573;-62
2024/01/14 04:35:07;;;;;;;14.85;10.78;;;;;;;0.52;100.00;98477.36;1749958;82;25391;-61
2024/01/14 04:37:35;;;;;;;14.18;10.50;;;;;;;0.52;100.00;98480.03;1729609;82;27324;-61
2024/01/14 04:40:01;;;;;;;18.67;11.28;;;;;;;0.51;100.00;98474.47;1750055;81;27220;-61
2024/01/14 04:42:28;;;;;;;12.73;9.70;;;;;;;0.51;100.00;98473.14;1723395;83;25592;-61
2024/01/14 04:44:54;;;;;;;14.43;10.23;;;;;;;0.53;100.00;98467.53;1749864;82;25521;-61
2024/01/14 04:47:22;;;;;;;13.55;10.05;;;;;;;0.53;100.00;98468.87;1723387;83;25608;-60
2024/01/14 04:49:49;;;;;;;15.55;10.82;;;;;;;0.53;100.00;98473.64;1750035;82;27335;-61
2024/01/14 04:52:15;;;;;;;16.73;11.03;;;;;;;0.53;100.00;98463.55;1749922;81;25598;-60
2024/01/14 04:54:41;;;;;;;15.05;10.03;;;;;;;0.52;100.00;98465.39;1749999;81;25557;-60
2024/01/14 04:57:07;;;;;;;14.33;9.95;;;;;;;0.52;100.00;98458.74;1749867;81;25595;-61
2024/01/14 04:59:34;;;;;;;15.45;10.15;;;;;;;0.51;100.00;98455.84;1698663;83;25610;-62
2024/01/14 05:02:01;;;;;;;12.90;9.48;;;;;;;0.52;100.00;98458.74;1729357;82;27808;-61
2024/01/14 05:04:27;;;;;;;14.60;10.38;;;;;;;0.53;100.00;98464.88;1750097;81;25763;-63
2024/01/14 05:06:53;;;;;;;13.58;9.93;;;;;;;0.52;100.00;98468.05;1755168;81;25385;-63
2024/01/14 05:09:22;;;;;;;14.80;10.88;;;;;;;0.52;100.00;98465.94;1723436;83;25681;-61
2024/01/14 05:11:49;;;;;;;15.60;10.30;;;;;;;0.52;100.00;98467.27;1749915;82;25441;-62
2024/01/14 05:14:16;;;;;;;15.40;9.85;;;;;;;0.54;100.00;98467.77;1714388;82;27401;-63
2024/01/14 05:16:44;;;;;;;15.10;9.70;;;;;;;0.53;100.00;98458.22;1721136;83;25570;-62
2024/01/14 05:19:10;;;;;;;13.30;9.55;;;;;;;0.52;100.00;98460.08;1721265;83;25456;-62
2024/01/14 05:21:38;;;;;;;14.13;10.10;;;;;;;0.52;100.00;98466.72;1721333;83;25830;-63
2024/01/14 05:24:06;;;;;;;12.90;9.73;;;;;;;0.53;100.00;98464.88;1721299;83;25439;-61
2024/01/14 05:26:33;;;;;;;14.50;9.68;;;;;;;0.54;100.00;98453.14;1721298;83;27402;-62
2024/01/14 05:28:59;;;;;;;11.43;8.65;;;;;;;0.54;100.00;98458.45;1721275;83;25653;-62
2024/01/14 05:31:28;;;;;;;12.73;9.45;;;;;;;0.54;100.00;98471.77;1721263;83;25459;-63
2024/01/14 05:33:55;;;;;;;12.73;8.85;;;;;;;0.53;100.00;98460.88;1721181;83;27816;-63
2024/01/14 05:36:21;;;;;;;17.32;10.40;;;;;;;0.51;100.00;98455.84;1721291;83;25440;-62
2024/01/14 05:38:47;;;;;;;12.82;9.33;;;;;;;0.50;100.00;98464.11;1721238;83;27295;-63
2024/01/14 05:41:14;;;;;;;12.43;9.60;;;;;;;0.48;100.00;98461.73;1721226;83;25554;-62
2024/01/14 05:43:40;;;;;;;13.75;10.45;;;;;;;0.47;100.00;98458.03;1721290;82;25581;-62
2024/01/14 05:46:09;;;;;;;12.98;9.25;;;;;;;0.46;100.00;98466.55;1721398;83;25602;-62
2024/01/14 05:48:35;;;;;;;13.05;9.80;;;;;;;0.46;100.00;98459.09;1721584;83;25659;-63
2024/01/14 05:51:02;;;;;;;14.45;10.25;;;;;;;0.47;100.00;98460.69;1721451;83;27398;-63
2024/01/14 05:53:29;;;;;;;16.45;10.70;;;;;;;0.46;100.00;98460.42;1721344;83;25447;-64
2024/01/14 05:55:55;;;;;;;12.18;9.35;;;;;;;0.46;100.00;98452.45;1721467;83;25545;-63
2024/01/14 05:58:23;;;;;;;16.42;10.68;;;;;;;0.45;100.00;98447.67;1721313;83;25638;-63
2024/01/14 06:00:49;;;;;;;16.50;10.32;;;;;;;0.45;100.00;98450.33;1721304;83;25385;-62
2024/01/14 06:03:16;;;;;;;13.90;9.70;;;;;;;0.45;100.00;98440.23;1721293;83;28090;-63
2024/01/14 06:05:42;;;;;;;16.60;11.08;;;;;;;0.45;100.00;98442.90;1721172;83;25876;-63
2024/01/14 06:08:10;;;;;;;14.33;10.90;;;;;;;0.45;100.00;98439.69;1721234;83;25546;-63
2024/01/14 06:10:38;;;;;;;15.08;10.70;;;;;;;0.46;100.00;98446.61;1721164;83;25632;-63
2024/01/14 06:13:06;;;;;;;14.78;10.48;;;;;;;0.46;100.00;98442.62;1721245;83;25446;-63
2024/01/14 06:15:33;;;;;;;15.78;10.78;;;;;;;0.46;100.00;98441.28;1740940;82;27316;-63
2024/01/14 06:17:59;;;;;;;17.52;11.00;;;;;;;0.47;100.00;98440.19;1749730;82;25728;-63
2024/01/14 06:20:25;;;;;;;16.15;10.65;;;;;;;0.46;100.00;98443.95;1749788;81;25387;-63
2024/01/14 06:22:51;;;;;;;16.90;11.10;;;;;;;0.47;100.00;98435.42;1749714;82;25814;-63
2024/01/14 06:25:19;;;;;;;13.98;9.78;;;;;;;0.46;100.00;98437.30;1749859;80;25424;-63
2024/01/14 06:27:47;;;;;;;15.18;9.63;;;;;;;0.47;100.00;98434.09;1749835;81;27187;-63
2024/01/14 06:30:16;;;;;;;15.13;10.40;;;;;;;0.48;100.00;98441.00;1749752;81;25558;-63
2024/01/14 06:32:43;;;;;;;14.85;10.35;;;;;;;0.47;100.00;98439.41;1749977;82;33800;-63
2024/01/14 06:35:09;;;;;;;16.90;10.10;;;;;;;0.47;100.00;98438.08;1749715;82;25632;-63
2024/01/14 06:37:37;;;;;;;14.70;10.78;;;;;;;0.47;100.00;98438.08;1749815;81;25616;-63
2024/01/14 06:40:06;;;;;;;13.50;10.05;;;;;;;0.47;100.00;98442.07;1749826;81;28124;-62
2024/01/14 06:42:33;;;;;;;14.53;9.85;;;;;;;0.46;100.00;98441.28;1749866;81;25578;-63
2024/01/14 06:44:59;;;;;;;15.05;8.93;;;;;;;0.45;100.00;98441.02;1749821;82;25628;-63
2024/01/14 06:47:29;;;;;;;13.13;8.68;;;;;;;0.44;100.00;98433.33;1749787;81;25910;-63
2024/01/14 06:49:55;;;;;;;10.93;8.88;;;;;;;0.44;100.00;98442.64;1749820;81;25460;-64
2024/01/14 06:52:23;;;;;;;14.25;9.25;;;;;;;0.42;100.00;98438.15;1749849;82;28131;-64
2024/01/14 06:54:49;;;;;;;12.82;8.88;;;;;;;0.42;100.00;98443.47;1749701;82;25415;-64
2024/01/14 06:57:17;;;;;;;12.65;9.25;;;;;;;0.42;100.00;98446.13;1749864;82;25550;-63
2024/01/14 06:59:46;;;;;;;12.10;9.08;;;;;;;0.40;100.00;98447.74;1749764;82;25679;-63
2024/01/14 07:02:12;;;;;;;12.82;9.20;;;;;;;0.41;100.00;98444.53;1749785;82;25675;-65
2024/01/14 07:04:40;;;;;;;12.25;9.53;;;;;;;0.40;100.00;98445.63;1749713;82;27373;-64
2024/01/14 07:07:08;;;;;;;13.13;9.78;;;;;;;0.39;100.00;98452.02;1749663;81;25392;-63
2024/01/14 07:09:36;;;;;;;11.93;8.95;;;;;;;0.38;100.00;98443.25;1749802;81;25629;-63
2024/01/14 07:12:05;;;;;;;12.55;8.70;;;;;;;0.39;100.00;98446.15;1749739;81;25633;-64
2024/01/14 07:14:34;;;;;;;11.60;8.88;;;;;;;0.40;100.00;98446.41;1749853;81;25445;-63
2024/01/14 07:17:01;;;;;;;11.88;9.43;;;;;;;0.38;100.00;98445.91;1749787;82;27322;-64
2024/01/14 07:19:30;;;;;;;13.13;8.85;;;;;;;0.40;100.00;98452.28;1749695;81;26057;-63
2024/01/14 07:21:56;;;;;;;13.73;8.43;;;;;;;0.42;100.00;98451.45;1750004;81;25695;-63
2024/01/14 07:24:24;;;;;;;13.62;8.93;;;;;;;0.42;100.00;98444.80;1749713;81;25632;-64
2024/01/14 07:26:50;;;;;;;11.45;8.90;;;;;;;0.42;100.00;98446.13;1749806;82;25447;-64
2024/01/14 07:29:18;;;;;;;11.70;9.38;;;;;;;0.43;100.00;98450.38;1749725;82;27419;-64
2024/01/14 07:31:44;;;;;;;12.40;8.85;;;;;;;0.42;100.00;98448.24;1749628;81;25371;-64
2024/01/14 07:34:10;;;;;;;13.20;8.75;;;;;;;0.43;100.00;98439.20;1749735;82;25631;-64
2024/01/14 07:36:38;;;;;;;14.18;8.95;;;;;;;0.44;100.00;98448.73;1749693;81;25622;-64
2024/01/14 07:39:04;;;;;;;13.08;9.15;;;;;;;0.43;100.00;98450.38;1749778;81;25459;-64
2024/01/14 07:41:32;;;;;;;14.63;9.85;;;;;;;0.44;100.00;98449.28;1749755;82;27436;-64
2024/01/14 07:43:58;;;;;;;12.58;8.88;;;;;;;0.41;100.00;98436.03;1749658;82;25569;-64
2024/01/14 07:46:25;;;;;;;13.35;8.93;;;;;;;0.43;100.00;98459.14;1749745;82;25616;-64
2024/01/14 07:48:51;;;;;;;12.43;9.63;;;;;;;0.43;100.00;98443.19;1749726;82;25972;-64
2024/01/14 07:51:17;;;;;;;16.55;8.83;;;;;;;0.43;100.00;98437.08;1749800;82;25609;-65
2024/01/14 07:53:43;;;;;;;14.35;10.25;;;;;;;0.43;100.00;98443.73;1749739;82;27363;-65
2024/01/14 07:56:09;;;;;;;15.05;9.50;;;;;;;0.41;100.00;98431.23;1749619;82;25673;-65
2024/01/14 07:58:35;;;;;;;14.25;10.30;;;;;;;0.43;100.00;98441.08;1749779;81;28337;-65
2024/01/14 08:01:04;;;;;;;12.68;8.95;;;;;;;0.43;100.00;98427.77;1749716;82;26237;-64
2024/01/14 08:03:32;;;;;;;15.70;9.13;;;;;;;0.43;100.00;98424.56;1749902;81;25479;-64
2024/01/14 08:06:00;;;;;;;12.37;9.75;;;;;;;0.45;100.00;98430.37;1749798;81;27189;-64
2024/01/14 08:08:26;;;;;;;13.50;9.80;;;;;;;0.47;100.00;98441.52;1749694;82;25862;-64
2024/01/14 08:10:56;;;;;;;15.05;9.25;;;;;;;0.49;100.00;98434.04;1749741;82;25653;-64
2024/01/14 08:13:22;;;;;;;14.05;9.20;;;;;;;0.52;100.00;98430.03;1749734;81;26351;-65
2024/01/14 08:15:48;;;;;;;12.10;8.60;;;;;;;0.51;100.00;98436.41;1752468;81;25894;-65
2024/01/14 08:18:16;;;;;;;12.35;8.73;;;;;;;0.51;100.00;98427.09;1755095;80;26812;-66
2024/01/14 08:20:42;;;;;;;12.85;8.75;;;;;;;0.48;100.00;98429.81;1755008;80;25414;-66
2024/01/14 08:23:09;;;;;;;13.80;9.30;;;;;;;0.49;100.00;98439.91;1755065;81;25460;-65
2024/01/14 08:25:35;;;;;;;13.03;8.35;;;;;;;0.48;100.00;98441.00;1755070;81;25630;-65
2024/01/14 08:28:01;;;;;;;14.13;8.55;;;;;;;0.46;100.00;98431.97;1755116;81;25658;-66
2024/01/14 08:30:27;;;;;;;13.78;8.60;;;;;;;0.46;100.00;98436.48;1755115;80;27354;-65
2024/01/14 08:32:53;;;;;;;10.88;8.78;;;;;;;0.46;100.00;98440.47;1755029;81;25568;-66
2024/01/14 08:35:19;;;;;;;17.50;8.70;;;;;;;0.46;100.00;98437.30;1755107;81;25676;-66
2024/01/14 08:37:48;;;;;;;12.03;8.58;;;;;;;0.47;100.00;98451.38;1755045;80;25698;-65
2024/01/14 08:40:16;;;;;;;13.03;9.10;;;;;;;0.48;100.00;98451.64;1755158;81;25410;-65
2024/01/14 08:42:45;;;;;;;12.65;8.40;;;;;;;0.49;100.00;98453.20;1755085;81;27316;-65
2024/01/14 08:45:16;;;;;;;12.80;8.48;;;;;;;0.50;100.00;98460.13;1755121;81;25626;-65
2024/01/14 08:47:44;;;;;;;11.68;8.13;;;;;;;0.51;100.00;98458.51;1755121;81;25631;-65
2024/01/14 08:50:12;;;;;;;12.80;8.23;;;;;;;0.50;100.00;98460.91;1755137;80;26425;-64
2024/01/14 08:52:40;;;;;;;17.67;8.85;;;;;;;0.51;100.00;98467.01;1755098;81;25610;-64
2024/01/14 08:55:08;;;;;;;10.98;8.35;;;;;;;0.50;100.00;98466.23;1755036;81;29570;-65
2024/01/14 08:57:35;;;;;;;10.70;8.50;;;;;;;0.50;100.00;98460.13;1755094;81;25617;-65
2024/01/14 09:00:06;;;;;;;11.83;7.87;;;;;;;0.52;100.00;98479.24;1728013;81;25638;-65
2024/01/14 09:02:34;;;;;;;11.45;8.53;;;;;;;0.50;100.00;98466.77;1755085;81;26183;-65
2024/01/14 09:05:01;;;;;;;13.68;9.80;;;;;;;0.49;100.00;98468.63;1755067;81;25626;-64
2024/01/14 09:07:27;;;;;;;11.65;8.43;;;;;;;0.47;100.00;98468.13;1755080;81;27695;-63
2024/01/14 09:09:53;;;;;;;14.25;8.50;;;;;;;0.48;100.00;98476.91;1754954;81;25602;-63
2024/01/14 09:12:19;;;;;;;11.73;8.85;;;;;;;0.47;100.00;98472.66;1755073;81;25391;-64
2024/01/14 09:14:46;;;;;;;12.50;7.83;;;;;;;0.45;100.00;98468.95;1755144;81;25605;-63
2024/01/14 09:17:12;;;;;;;13.20;8.23;;;;;;;0.47;100.00;98458.81;1755171;81;25440;-63
2024/01/14 09:19:38;;;;;;;12.15;8.50;;;;;;;0.50;100.00;98472.88;1755211;81;27335;-63
2024/01/14 09:22:06;;;;;;;12.30;8.70;;;;;;;0.51;100.00;98468.34;1755144;81;25588;-63
2024/01/14 09:24:32;;;;;;;15.45;8.80;;;;;;;0.54;100.00;98473.09;1755167;81;25479;-63
2024/01/14 09:26:58;;;;;;;11.75;8.13;;;;;;;0.53;100.00;98457.67;1755176;81;25690;-63
2024/01/14 09:29:25;;;;;;;13.25;8.75;;;;;;;0.55;100.00;98471.48;1755235;81;25683;-63
2024/01/14 09:31:53;;;;;;;13.85;8.30;;;;;;;0.59;100.00;98461.59;1755236;81;28333;-62
2024/01/14 09:34:19;;;;;;;13.60;8.75;;;;;;;0.60;100.00;98468.52;1755114;80;25463;-62
2024/01/14 09:36:47;;;;;;;11.48;8.60;;;;;;;0.60;100.00;98467.18;1755217;81;25428;-62
2024/01/14 09:39:15;;;;;;;11.10;8.13;;;;;;;0.59;100.00;98466.91;1755215;81;25624;-64
2024/01/14 09:41:56;;;;;;;13.10;8.20;;;;;;;0.60;100.00;98463.19;1755476;81;25479;-61
2024/01/14 09:44:24;;;;;;;12.93;8.75;;;;;;;0.62;100.00;98469.01;1754663;81;27637;-62
2024/01/14 09:46:52;;;;;;;13.13;7.83;;;;;;;0.62;100.00;98466.34;1755110;81;25460;-62
2024/01/14 09:49:21;;;;;;;11.83;8.43;;;;;;;0.64;100.00;98470.84;1755165;81;25583;-62
2024/01/14 09:51:51;;;;;;;14.53;7.83;;;;;;;0.60;100.00;98455.98;1755283;81;25697;-63
2024/01/14 09:54:17;;;;;;;;;;;;;;;0.61;100.00;98468.20;1757850;81;25426;-63
2024/01/14 09:56:49;;;;;;;14.33;8.18;;;;;;;0.61;100.00;98462.88;1755184;81;27677;-61
2024/01/14 09:59:19;;;;;;;11.53;8.28;;;;;;;0.60;100.00;98463.19;1755170;81;25604;-61
2024/01/14 10:01:48;;;;;;;14.23;8.15;;;;;;;0.59;100.00;98468.25;1755260;81;25602;-61
2024/01/14 10:04:17;;;;;;;12.63;9.13;;;;;;;0.60;100.00;98466.63;1755298;81;25709;-62
2024/01/14 10:06:46;;;;;;;12.47;8.05;;;;;;;0.56;100.00;98460.28;1755347;81;25635;-62
2024/01/14 10:09:13;;;;;;;13.50;8.43;;;;;;;0.60;100.00;98460.53;1755337;80;33031;-62
2024/01/14 10:11:39;;;;;;;10.93;8.10;;;;;;;0.58;100.00;98464.80;1755120;81;25467;-62
2024/01/14 10:14:05;;;;;;;14.75;8.75;;;;;;;0.60;100.00;98464.52;1755208;81;25374;-61
2024/01/14 10:16:41;;;;;;;14.03;7.80;;;;;;;0.61;100.00;98470.08;1751909;81;26341;-61
2024/01/14 10:19:07;;;;;;;14.55;8.43;;;;;;;0.57;100.00;98455.78;1748655;82;25493;-63
2024/01/14 10:21:33;;;;;;;14.77;8.53;;;;;;;0.59;100.00;98470.36;1750075;82;27339;-62
2024/01/14 10:24:03;;;;;;;12.93;8.18;;;;;;;0.59;100.00;98464.25;1749621;81;27382;-61
2024/01/14 10:26:29;;;;;;;11.30;7.80;;;;;;;0.59;100.00;98458.39;1720484;82;25612;-61
2024/01/14 10:29:04;;;;;;;11.22;7.95;;;;;;;0.62;100.00;98471.67;1749786;81;25689;-62
2024/01/14 10:31:35;;;;;;;14.18;8.40;;;;;;;0.63;100.00;98453.28;1749911;82;25409;-60
2024/01/14 10:34:02;;;;;;;15.90;8.35;;;;;;;0.64;100.00;98458.86;1748310;82;27359;-59
2024/01/14 10:36:32;;;;;;;14.03;7.90;;;;;;;0.67;100.00;98467.61;1749739;82;25625;-61
2024/01/14 10:39:02;;;;;;;15.65;8.53;;;;;;;0.67;100.00;98451.09;1749924;81;25401;-61
2024/01/14 10:41:30;;;;;;;14.10;8.55;;;;;;;0.73;100.00;98463.77;1749815;81;25746;-61
2024/01/14 10:43:58;;;;;;;13.28;9.53;;;;;;;0.74;100.00;98456.05;1749908;82;25499;-61
2024/01/14 10:46:30;;;;;;;11.45;7.53;;;;;;;0.76;100.00;98457.88;1749807;82;27331;-60
2024/01/14 10:49:09;;;;;;;12.50;8.35;;;;;;;0.75;100.00;98447.00;1749788;81;25396;-60
2024/01/14 10:51:41;;;;;;;11.73;7.75;;;;;;;0.74;100.00;98460.05;1749814;81;25561;-60
2024/01/14 10:54:52;;;;;;;14.18;7.92;;;;;;;0.73;100.00;98463.77;1720247;82;25706;-61
2024/01/14 10:57:37;;;;;;;11.38;7.12;;;;;;;0.74;100.00;98460.05;1749905;82;25579;-61
2024/01/14 11:00:08;;;;;;;10.08;7.70;;;;;;;0.71;100.00;98457.41;1749860;82;27741;-61
2024/01/14 11:02:39;;;;;;;10.45;7.97;;;;;;;0.72;100.00;98461.66;1749773;82;25403;-60
2024/01/14 11:05:08;;;;;;;10.63;7.33;;;;;;;0.74;100.00;98454.72;1749834;82;25581;-59
2024/01/14 11:07:36;;;;;;;10.78;7.80;;;;;;;0.73;100.00;98457.94;1749933;81;25629;-60
2024/01/14 11:10:10;;;;;;;10.88;8.33;;;;;;;0.75;100.00;98465.63;1749842;81;25621;-61
2024/01/14 11:13:10;;;;;;;12.58;8.58;;;;;;;0.69;100.00;98454.25;1749869;82;27407;-61
2024/01/14 11:15:57;;;;;;;11.63;8.35;;;;;;;0.73;100.00;98462.45;1749990;81;25514;-60
2024/01/14 11:18:32;;;;;;;16.87;10.30;;;;;;;0.71;100.00;98451.30;1754235;81;25411;-61
2024/01/14 11:21:28;;;;;;;10.85;8.20;;;;;;;0.76;100.00;98449.90;1746323;81;25789;-59